Time;durP1;ratioP1;P1;durP2;ratioP2;P2;SDS_P1;SDS_P2;PMS_P1;PMS_P2;Temp;Humidity;BMP_temperature;BMP_pressure;BME280_temperature;BME280_humidity;BME280_pressure;Samples;Min_cycle;Max_cycle;Signal;HPM_P1;HPM_P2
2022/11/15 00:04:06;;;;;;;4.80;1.77;;;;;;;14.24;100.00;99943.25;10420394;28;96793;-73
2022/11/15 00:09:09;;;;;;;3.10;1.13;;;;;;;14.23;100.00;99923.19;10419825;28;96732;-73
2022/11/15 00:14:12;;;;;;;3.50;1.40;;;;;;;14.20;100.00;99918.06;10419491;28;96629;-73
2022/11/15 00:19:17;;;;;;;4.03;1.30;;;;;;;14.27;100.00;99919.44;10419881;28;97542;-73
2022/11/15 00:24:20;;;;;;;3.15;1.42;;;;;;;14.36;100.00;99911.09;10424051;27;96996;-73
2022/11/15 00:29:23;;;;;;;3.35;1.00;;;;;;;14.43;100.00;99918.66;10426759;27;96784;-73
2022/11/15 00:34:28;;;;;;;4.60;1.00;;;;;;;14.43;100.00;99918.66;10425953;27;96694;-73
2022/11/15 00:39:31;;;;;;;2.67;1.10;;;;;;;14.48;100.00;99912.22;10425212;28;97355;-73
2022/11/15 00:44:34;;;;;;;4.22;0.80;;;;;;;14.51;100.00;99903.34;10425972;27;96837;-73
2022/11/15 00:49:40;;;;;;;4.15;1.00;;;;;;;14.56;100.00;99896.03;10425979;27;96658;-73
2022/11/15 00:54:44;;;;;;;3.05;0.82;;;;;;;14.60;100.00;99879.13;10425339;28;97318;-73
2022/11/15 00:59:47;;;;;;;2.53;0.80;;;;;;;14.64;100.00;99875.41;10425078;27;96537;-73
2022/11/15 01:04:52;;;;;;;4.35;1.10;;;;;;;14.75;100.00;99877.47;10425523;28;97088;-73
2022/11/15 01:09:55;;;;;;;;;;;;;;;14.71;100.00;99871.53;10425298;28;96771;-73
2022/11/15 01:14:58;;;;;;;7.57;0.95;;;;;;;14.68;100.00;99869.06;10426101;28;96734;-73
2022/11/15 01:20:03;;;;;;;2.65;0.90;;;;;;;14.58;100.00;99874.91;10425088;28;96749;-73
2022/11/15 01:25:07;;;;;;;3.47;1.10;;;;;;;14.63;100.00;99873.72;10423356;27;96900;-73
2022/11/15 01:30:10;;;;;;;2.60;0.90;;;;;;;14.63;100.00;99863.19;10423679;28;96677;-73
2022/11/15 01:35:15;;;;;;;2.83;0.70;;;;;;;14.58;100.00;99854.69;10424350;27;96623;-73
2022/11/15 01:40:18;;;;;;;;;;;;;;;14.51;100.00;99845.44;10424604;27;96656;-73
2022/11/15 01:45:22;;;;;;;3.67;1.10;;;;;;;14.43;100.00;99840.59;10423796;27;96723;-73
2022/11/15 01:50:31;;;;;;;3.35;1.00;;;;;;;14.40;100.00;99810.97;10424249;28;96934;-73
2022/11/15 01:55:34;;;;;;;2.72;1.00;;;;;;;14.40;100.00;99808.34;10423523;28;96683;-73
2022/11/15 02:00:38;;;;;;;2.47;0.93;;;;;;;14.37;100.00;99783.91;10422619;28;96695;-73
2022/11/15 02:05:44;;;;;;;4.25;1.02;;;;;;;14.31;100.00;99786.88;10424220;27;96679;-73
2022/11/15 02:10:48;;;;;;;3.13;1.00;;;;;;;14.26;100.00;99770.50;10423407;27;97033;-73
2022/11/15 02:16:04;;;;;;;3.88;1.00;;;;;;;14.36;100.00;99771.69;10422814;27;96687;-73
2022/11/15 02:21:18;;;;;;;5.63;1.08;;;;;;;14.43;100.00;99779.25;10421486;28;96554;-73
2022/11/15 02:26:48;;;;;;;6.30;1.20;;;;;;;14.44;100.00;99773.91;10421944;28;96842;-73
2022/11/15 02:32:02;;;;;;;3.08;0.90;;;;;;;14.52;100.00;99778.72;10422135;27;96740;-73
2022/11/15 02:37:10;;;;;;;5.03;0.90;;;;;;;14.51;100.00;99763.88;10422417;28;96630;-73
2022/11/15 02:47:46;;;;;;;3.45;1.02;;;;;;;14.55;100.00;99755.72;10421249;27;96797;-73
2022/11/15 02:52:50;;;;;;;3.40;0.80;;;;;;;14.56;100.00;99751.31;10422066;28;97231;-73
2022/11/15 02:58:05;;;;;;;3.40;1.08;;;;;;;14.61;100.00;99730.88;10422600;28;97033;-73
2022/11/15 03:03:42;;;;;;;4.03;0.77;;;;;;;14.67;100.00;99725.22;10421263;27;96698;-73
2022/11/15 03:08:56;;;;;;;3.67;0.80;;;;;;;14.65;100.00;99703.44;10410450;27;96645;-73
2022/11/15 03:14:03;;;;;;;4.55;0.82;;;;;;;14.64;100.00;99711.41;10420544;28;96733;-73
2022/11/15 03:19:14;;;;;;;3.45;0.93;;;;;;;14.72;100.00;99709.19;10421179;28;96767;-73
2022/11/15 03:24:22;;;;;;;5.85;0.75;;;;;;;14.79;100.00;99693.91;10420237;28;97586;-73
2022/11/15 03:29:32;;;;;;;5.30;1.38;;;;;;;14.83;100.00;99698.88;10420675;28;96647;-73
2022/11/15 03:34:42;;;;;;;3.55;0.77;;;;;;;14.86;100.00;99669.75;10420913;28;96620;-73
2022/11/15 03:39:45;;;;;;;4.75;0.77;;;;;;;14.95;100.00;99668.34;10420408;28;96644;-73
2022/11/15 03:44:55;;;;;;;12.55;1.42;;;;;;;14.98;100.00;99668.16;10420226;28;96579;-73
2022/11/15 03:50:05;;;;;;;7.55;1.58;;;;;;;14.99;100.00;99653.22;10421179;27;96591;-73
2022/11/15 03:55:12;;;;;;;3.58;1.00;;;;;;;15.05;100.00;99650.22;10419752;27;98130;-73
2022/11/15 04:00:16;;;;;;;5.03;1.13;;;;;;;15.05;100.00;99637.91;10425914;27;96524;-73
2022/11/15 04:05:20;;;;;;;5.33;1.57;;;;;;;15.08;100.00;99627.19;10426423;28;96729;-73
2022/11/15 04:10:23;;;;;;;3.65;0.73;;;;;;;15.09;100.00;99633.28;10427009;28;96678;-73
2022/11/15 04:15:28;;;;;;;4.53;0.90;;;;;;;15.14;100.00;99583.81;10426581;27;96585;-73
2022/11/15 04:25:56;;;;;;;7.03;1.50;;;;;;;14.90;100.00;99601.97;10425834;27;96761;-73
2022/11/15 04:30:59;;;;;;;6.07;1.08;;;;;;;14.77;100.00;99596.59;10426694;28;96912;-73
2022/11/15 04:41:25;;;;;;;6.78;1.10;;;;;;;14.79;100.00;99567.56;10427632;27;98543;-73
2022/11/15 04:46:28;;;;;;;3.45;0.85;;;;;;;14.76;100.00;99568.56;10426842;28;96969;-73
2022/11/15 04:51:32;;;;;;;4.22;0.90;;;;;;;14.63;100.00;99570.28;10426050;27;96879;-73
2022/11/15 04:56:36;;;;;;;4.38;0.93;;;;;;;14.57;100.00;99574.09;10425407;27;96905;-73
2022/11/15 05:01:39;;;;;;;6.28;1.08;;;;;;;14.56;100.00;99577.69;10425913;28;96710;-73
2022/11/15 05:06:49;;;;;;;3.45;0.77;;;;;;;14.63;100.00;99573.75;10426048;28;96875;-73
2022/11/15 05:11:53;;;;;;;4.95;1.00;;;;;;;14.68;100.00;99570.81;10425260;27;96989;-73
2022/11/15 05:16:56;;;;;;;4.65;0.90;;;;;;;14.67;100.00;99548.94;10425435;28;96764;-73
2022/11/15 05:22:00;;;;;;;3.92;0.80;;;;;;;14.73;100.00;99548.56;10425496;28;96847;-73
2022/11/15 05:27:04;;;;;;;3.67;0.80;;;;;;;14.74;100.00;99528.34;10424821;28;96955;-73
2022/11/15 05:32:09;;;;;;;3.75;0.82;;;;;;;14.70;100.00;99522.44;10426015;27;96978;-73
2022/11/15 05:37:14;;;;;;;1.83;0.70;;;;;;;14.75;100.00;99524.78;10424814;28;96935;-73
2022/11/15 05:42:18;;;;;;;1.27;0.50;;;;;;;14.74;100.00;99497.59;10424350;27;96702;-73
2022/11/15 05:47:25;;;;;;;3.17;0.47;;;;;;;14.77;100.00;99503.66;10423312;27;96869;-73
2022/11/15 05:52:35;;;;;;;2.00;0.60;;;;;;;14.80;100.00;99513.97;10382794;28;96595;-73
2022/11/15 05:57:39;;;;;;;1.50;0.40;;;;;;;14.75;100.00;99498.47;10407435;28;97005;-73
2022/11/15 06:02:42;;;;;;;1.55;0.47;;;;;;;14.77;100.00;99496.59;10424104;28;96686;-73
2022/11/15 06:07:46;;;;;;;1.25;0.20;;;;;;;14.82;100.00;99484.00;10423606;28;97156;-73
2022/11/15 06:12:58;;;;;;;1.25;0.32;;;;;;;14.81;100.00;99486.72;10423872;27;96591;-73
2022/11/15 06:18:01;;;;;;;1.85;0.38;;;;;;;14.78;100.00;99465.84;10381781;28;96808;-73
2022/11/15 06:23:06;;;;;;;1.75;0.30;;;;;;;14.81;100.00;99473.56;10381774;28;96695;-73
2022/11/15 06:28:09;;;;;;;2.05;0.38;;;;;;;14.83;100.00;99490.09;10381550;28;96944;-73
2022/11/15 06:33:12;;;;;;;0.95;0.30;;;;;;;14.80;100.00;99477.97;10409944;28;96724;-73
2022/11/15 06:38:17;;;;;;;0.20;0.10;;;;;;;14.77;100.00;99466.81;10421899;28;97302;-73
2022/11/15 06:43:20;;;;;;;1.85;0.10;;;;;;;14.73;100.00;99443.31;10422847;28;97279;-73
2022/11/15 06:48:23;;;;;;;0.05;0.00;;;;;;;14.70;100.00;99421.59;10422506;28;96866;-73
2022/11/15 06:53:29;;;;;;;0.57;0.15;;;;;;;14.73;100.00;99405.59;10422191;27;96815;-73
2022/11/15 06:58:33;;;;;;;0.28;0.10;;;;;;;14.74;100.00;99397.59;10421712;28;97840;-73
2022/11/15 07:03:37;;;;;;;0.52;0.10;;;;;;;14.82;100.00;99404.16;10421927;27;97030;-73
2022/11/15 07:08:42;;;;;;;3.38;0.32;;;;;;;14.75;100.00;99427.41;10422068;28;96754;-73
2022/11/15 07:13:45;;;;;;;1.00;0.20;;;;;;;14.69;100.00;99420.72;10423256;28;96601;-73
2022/11/15 07:18:49;;;;;;;1.00;0.20;;;;;;;14.65;100.00;99418.41;10421533;28;96954;-73
2022/11/15 07:23:54;;;;;;;1.42;0.17;;;;;;;14.64;100.00;99425.44;10420985;28;96704;-73
2022/11/15 07:28:57;;;;;;;2.17;0.40;;;;;;;14.71;100.00;99418.88;10420711;28;96608;-72
2022/11/15 07:34:00;;;;;;;0.75;0.00;;;;;;;14.68;100.00;99428.72;10427152;27;96733;-73
2022/11/15 07:39:05;;;;;;;0.70;0.10;;;;;;;14.73;100.00;99437.16;10428833;28;96949;-73
2022/11/15 07:44:08;;;;;;;;;;;;;;;14.74;100.00;99460.75;10428466;27;96791;-73
2022/11/15 07:49:11;;;;;;;0.25;0.10;;;;;;;14.78;100.00;99473.75;10428671;27;96679;-73
2022/11/15 07:54:16;;;;;;;0.10;0.00;;;;;;;14.81;100.00;99463.03;10428489;28;96793;-73
2022/11/15 07:59:20;;;;;;;;;;;;;;;14.78;100.00;99460.59;10428404;27;96651;-73
2022/11/15 08:04:23;;;;;;;0.55;0.10;;;;;;;14.86;100.00;99460.97;10428861;27;96715;-73
2022/11/15 08:09:28;;;;;;;1.10;0.10;;;;;;;14.92;100.00;99450.91;10427805;28;96823;-73
2022/11/15 08:14:31;;;;;;;;;;;;;;;14.92;100.00;99442.13;10427813;28;96936;-73
2022/11/15 08:19:34;;;;;;;0.57;0.08;;;;;;;15.03;100.00;99434.41;10426327;27;96797;-73
2022/11/15 08:24:39;;;;;;;0.85;0.10;;;;;;;15.22;100.00;99439.34;10426574;27;97058;-73
2022/11/15 08:29:43;;;;;;;;;;;;;;;15.29;100.00;99432.75;10427474;28;97403;-73
2022/11/15 08:34:46;;;;;;;0.68;0.10;;;;;;;15.33;100.00;99430.75;10427144;27;96839;-73
2022/11/15 08:39:51;;;;;;;0.00;0.00;;;;;;;15.35;100.00;99420.94;10426868;28;97004;-73
2022/11/15 08:44:54;;;;;;;;;;;;;;;15.34;100.00;99421.91;10426397;27;97681;-73
2022/11/15 08:49:57;;;;;;;0.10;0.00;;;;;;;15.37;100.00;99436.66;10425927;28;96800;-73
2022/11/15 09:08:13;;;;;;;3.13;0.30;;;;;;;15.63;100.00;99396.31;10442536;27;97257;-75
2022/11/15 09:13:36;;;;;;;;;;;;;;;15.49;100.00;99426.19;10446232;27;98897;-75
2022/11/15 09:18:39;;;;;;;1.50;0.20;;;;;;;15.49;100.00;99454.31;10455114;27;97554;-74
2022/11/15 09:23:44;;;;;;;0.30;0.28;;;;;;;15.47;100.00;99517.63;10435698;27;99039;-74
2022/11/15 09:28:48;;;;;;;2.15;0.25;;;;;;;15.41;100.00;99523.31;10444535;27;97256;-74
2022/11/15 09:33:51;;;;;;;0.55;0.38;;;;;;;15.41;100.00;99539.13;10443448;27;98204;-74
2022/11/15 09:38:55;;;;;;;1.33;0.40;;;;;;;15.35;100.00;99534.22;10448002;27;97294;-73
2022/11/15 09:44:19;;;;;;;4.47;1.10;;;;;;;15.30;100.00;99552.09;10440288;27;98461;-73
2022/11/15 09:49:27;;;;;;;2.78;0.57;;;;;;;15.24;100.00;99568.31;10439891;27;97947;-73
2022/11/15 09:54:35;;;;;;;2.22;0.75;;;;;;;15.18;100.00;99589.75;10446952;27;98201;-77
2022/11/15 10:00:05;;;;;;;3.35;0.90;;;;;;;15.16;100.00;99599.53;10444255;27;97683;-77
2022/11/15 10:05:42;;;;;;;4.18;1.40;;;;;;;15.07;100.00;99604.41;10429544;27;99049;-82
2022/11/15 10:10:59;;;;;;;9.40;1.70;;;;;;;15.03;100.00;99615.25;10409856;28;96912;-78
2022/11/15 10:17:04;;;;;;;6.68;1.63;;;;;;;15.05;100.00;99640.53;10418507;27;97329;-78
2022/11/15 10:22:22;;;;;;;5.97;1.70;;;;;;;15.10;100.00;99646.38;10413185;28;97627;-78
2022/11/15 10:27:27;;;;;;;9.68;1.67;;;;;;;15.16;100.00;99631.13;10414981;28;97051;-78
2022/11/15 10:32:31;;;;;;;;;;;;;;;15.20;100.00;99630.88;10406820;27;97541;-78
2022/11/15 10:37:34;;;;;;;6.40;1.77;;;;;;;15.34;100.00;99658.13;10421222;28;96830;-78
2022/11/15 10:42:38;;;;;;;6.93;1.73;;;;;;;15.36;100.00;99662.38;10416367;27;97603;-78
2022/11/15 10:47:42;;;;;;;9.23;1.85;;;;;;;15.25;100.00;99667.44;10416629;27;96924;-79
2022/11/15 10:52:47;;;;;;;7.05;1.45;;;;;;;15.13;100.00;99676.94;10410974;28;97333;-75
2022/11/15 10:57:54;;;;;;;7.45;1.50;;;;;;;15.15;100.00;99679.47;10417459;27;98570;-75
2022/11/15 11:02:59;;;;;;;7.35;1.83;;;;;;;14.99;100.00;99677.78;10414854;27;96855;-75
2022/11/15 11:08:05;;;;;;;6.80;1.80;;;;;;;15.02;100.00;99674.09;10408106;27;96763;-75
2022/11/15 11:13:24;;;;;;;6.80;1.55;;;;;;;15.11;100.00;99679.69;10413272;27;97035;-75
2022/11/15 11:18:34;;;;;;;6.63;2.10;;;;;;;15.17;100.00;99673.19;10412712;27;97303;-81
2022/11/15 11:23:48;;;;;;;7.22;1.70;;;;;;;15.24;100.00;99673.66;10413436;27;97282;-77
2022/11/15 11:29:03;;;;;;;10.32;2.30;;;;;;;15.26;100.00;99661.25;10412889;28;98334;-78
2022/11/15 11:34:16;;;;;;;9.15;2.22;;;;;;;15.21;100.00;99669.41;10412202;28;97112;-78
2022/11/15 11:39:29;;;;;;;8.13;2.47;;;;;;;15.08;100.00;99660.59;10418584;28;97055;-78
2022/11/15 11:44:49;;;;;;;12.10;2.47;;;;;;;15.13;100.00;99651.47;10415664;27;97593;-80
2022/11/15 11:49:57;;;;;;;7.70;2.10;;;;;;;15.28;100.00;99646.19;10414894;28;97663;-77
2022/11/15 11:55:05;;;;;;;5.88;1.38;;;;;;;15.26;100.00;99646.28;10412484;28;97318;-78
2022/11/15 12:00:19;;;;;;;4.03;1.50;;;;;;;15.16;100.00;99645.13;10407527;27;99194;-74
2022/11/15 12:05:30;;;;;;;7.82;2.13;;;;;;;15.09;100.00;99643.81;10413806;28;97274;-75
2022/11/15 12:10:35;;;;;;;6.93;1.92;;;;;;;15.15;100.00;99647.88;10409654;28;97205;-75
2022/11/15 12:15:45;;;;;;;6.50;1.70;;;;;;;15.12;100.00;99648.91;10406449;27;96958;-72
2022/11/15 12:20:56;;;;;;;5.10;2.03;;;;;;;15.11;100.00;99641.94;10410766;27;97151;-74
2022/11/15 12:45:36;;;;;;;8.70;2.30;;;;;;;14.52;100.00;99649.81;10471108;27;96938;-74
2022/11/15 12:50:57;;;;;;;8.57;1.98;;;;;;;14.70;100.00;99651.38;10445301;27;98706;-75
2022/11/15 12:56:19;;;;;;;5.72;2.35;;;;;;;14.86;100.00;99647.84;10453955;27;96915;-75
2022/11/15 13:01:59;;;;;;;9.38;3.00;;;;;;;14.83;100.00;99642.75;10454196;27;96928;-75
2022/11/15 13:07:04;;;;;;;8.13;2.05;;;;;;;14.79;100.00;99641.25;10450278;27;97664;-74
2022/11/15 13:12:40;;;;;;;5.68;2.05;;;;;;;14.78;100.00;99629.84;10448896;27;97178;-78
2022/11/15 13:17:49;;;;;;;7.80;1.95;;;;;;;14.92;100.00;99642.19;10448310;27;97929;-74
2022/11/15 13:23:01;;;;;;;10.57;2.45;;;;;;;15.18;100.00;99647.69;10445963;27;96903;-77
2022/11/15 13:28:18;;;;;;;9.80;2.13;;;;;;;15.26;100.00;99634.91;10442269;27;97403;-75
2022/11/15 13:33:26;;;;;;;7.05;1.83;;;;;;;15.32;100.00;99638.00;10442700;27;98825;-75
2022/11/15 13:38:38;;;;;;;9.57;2.20;;;;;;;15.71;100.00;99633.00;10444471;27;96862;-75
2022/11/15 13:43:41;;;;;;;5.35;1.75;;;;;;;16.13;100.00;99631.19;10440027;27;96943;-74
2022/11/15 13:48:48;;;;;;;5.97;1.50;;;;;;;16.27;100.00;99622.38;10441571;27;98967;-74
2022/11/15 13:53:55;;;;;;;11.30;2.00;;;;;;;16.48;100.00;99627.19;10432614;27;97375;-75
2022/11/15 13:58:59;;;;;;;7.55;1.48;;;;;;;16.50;100.00;99612.97;10417664;28;97645;-75
2022/11/15 14:04:05;;;;;;;8.32;1.80;;;;;;;16.54;100.00;99609.16;10409277;28;97567;-77
2022/11/15 14:09:33;;;;;;;6.90;1.70;;;;;;;16.62;100.00;99591.03;10412871;28;99397;-76
2022/11/15 14:14:46;;;;;;;5.13;1.77;;;;;;;17.15;100.00;99608.59;10420498;28;99584;-72
2022/11/15 14:19:52;;;;;;;9.70;2.45;;;;;;;17.22;100.00;99572.03;10412654;28;97383;-77
2022/11/15 14:25:16;;;;;;;10.00;2.50;;;;;;;16.75;100.00;99588.41;10415462;28;96805;-74
2022/11/15 14:30:19;;;;;;;8.50;2.42;;;;;;;16.78;100.00;99575.00;10404229;28;97301;-76
2022/11/15 14:35:24;;;;;;;6.32;2.13;;;;;;;16.88;100.00;99564.63;10417751;28;96833;-81
2022/11/15 14:40:28;;;;;;;11.98;2.33;;;;;;;17.05;100.00;99591.69;10412339;28;96837;-73
2022/11/15 14:45:31;;;;;;;9.23;2.10;;;;;;;17.46;100.00;99585.31;10409645;28;97131;-74
2022/11/15 14:50:37;;;;;;;12.50;2.30;;;;;;;17.07;100.00;99566.00;10413197;28;97007;-73
2022/11/15 14:55:40;;;;;;;8.48;2.10;;;;;;;16.84;100.00;99572.91;10417050;28;97179;-74
2022/11/15 15:00:46;;;;;;;8.98;2.30;;;;;;;17.02;100.00;99571.59;10405530;27;96973;-82
2022/11/15 15:05:50;;;;;;;10.40;2.78;;;;;;;16.99;100.00;99570.03;10409972;28;98108;-77
2022/11/15 15:10:53;;;;;;;;;;;;;;;16.93;100.00;99578.38;10412232;28;96933;-77
2022/11/15 15:15:56;;;;;;;8.25;2.25;;;;;;;17.03;100.00;99583.88;10404439;28;97945;-75
2022/11/15 15:21:06;;;;;;;7.25;2.03;;;;;;;16.98;100.00;99576.25;10408690;28;97050;-75
2022/11/15 15:26:10;;;;;;;5.35;1.92;;;;;;;16.79;100.00;99589.03;10405455;28;98131;-75
2022/11/15 15:31:13;;;;;;;7.37;2.23;;;;;;;16.59;100.00;99580.66;10406074;28;98553;-75
2022/11/15 15:36:19;;;;;;;8.07;2.15;;;;;;;16.42;100.00;99584.44;10408930;28;97046;-75
2022/11/15 15:41:24;;;;;;;12.68;2.45;;;;;;;16.24;100.00;99590.91;10408038;28;99259;-75
2022/11/15 15:46:27;;;;;;;12.80;2.25;;;;;;;16.18;100.00;99592.19;10412114;27;98347;-80
2022/11/15 15:51:31;;;;;;;11.98;2.42;;;;;;;16.07;100.00;99597.31;10415160;27;96891;-76
2022/11/15 15:56:35;;;;;;;9.05;2.40;;;;;;;15.85;100.00;99611.88;10416731;28;97176;-77
2022/11/15 16:01:38;;;;;;;5.85;2.72;;;;;;;15.87;100.00;99606.50;10403115;28;97322;-75
2022/11/15 16:06:44;;;;;;;6.07;2.83;;;;;;;15.95;100.00;99598.13;10413167;28;96755;-75
2022/11/15 16:11:47;;;;;;;10.00;2.47;;;;;;;15.99;100.00;99602.25;10410755;28;99145;-75
2022/11/15 16:16:50;;;;;;;7.53;2.58;;;;;;;15.97;100.00;99617.31;10412671;27;98805;-76
2022/11/15 16:21:55;;;;;;;10.13;2.58;;;;;;;15.88;100.00;99627.50;10416348;28;96804;-77
2022/11/15 16:26:58;;;;;;;;;;;;;;;15.72;100.00;99632.09;10414241;28;96890;-76
2022/11/15 16:32:01;;;;;;;7.80;2.20;;;;;;;15.57;100.00;99612.78;10415390;28;96879;-78
2022/11/15 16:37:06;;;;;;;10.00;2.53;;;;;;;15.51;100.00;99615.78;10418199;28;98521;-75
2022/11/15 16:42:09;;;;;;;7.95;2.63;;;;;;;15.45;100.00;99622.28;10408436;27;98357;-75
2022/11/15 16:47:17;;;;;;;13.00;2.60;;;;;;;15.37;100.00;99621.91;10413040;28;96932;-74
2022/11/15 16:52:22;;;;;;;11.32;2.28;;;;;;;15.26;100.00;99632.28;10402491;28;96843;-75
2022/11/15 16:57:25;;;;;;;;;;;;;;;15.07;100.00;99627.28;10409693;28;99060;-74
2022/11/15 17:02:28;;;;;;;8.35;2.22;;;;;;;14.99;100.00;99627.75;10410260;28;97752;-77
2022/11/15 17:07:33;;;;;;;10.57;2.50;;;;;;;14.91;100.00;99632.63;10403752;28;99140;-75
2022/11/15 17:12:36;;;;;;;9.25;2.50;;;;;;;14.85;100.00;99625.09;10413499;28;96882;-77
2022/11/15 17:17:40;;;;;;;9.27;2.83;;;;;;;14.87;100.00;99636.34;10414037;28;97094;-77
2022/11/15 17:22:46;;;;;;;13.05;3.55;;;;;;;14.82;100.00;99627.88;10415290;27;97587;-75
2022/11/15 17:27:49;;;;;;;13.82;3.85;;;;;;;14.82;100.00;99628.75;10411239;27;97078;-78
2022/11/15 17:32:52;;;;;;;12.77;4.07;;;;;;;14.85;100.00;99625.09;10419859;28;96888;-75
2022/11/15 17:37:57;;;;;;;10.02;3.65;;;;;;;14.84;100.00;99626.03;10404768;28;96884;-75
2022/11/15 17:43:01;;;;;;;;;;;;;;;14.78;100.00;99650.06;10422906;28;96986;-73
2022/11/15 17:48:04;;;;;;;7.18;3.05;;;;;;;14.79;100.00;99651.78;10425793;28;96817;-74
2022/11/15 17:53:09;;;;;;;10.00;3.30;;;;;;;14.80;100.00;99666.63;10413029;28;96822;-74
2022/11/15 17:58:12;;;;;;;9.73;3.47;;;;;;;14.80;100.00;99658.72;10423696;28;99060;-74
2022/11/15 18:03:19;;;;;;;10.68;4.28;;;;;;;14.79;100.00;99651.78;10421484;28;97009;-76
2022/11/15 18:08:23;;;;;;;9.98;3.65;;;;;;;14.83;100.00;99658.53;10423983;28;98184;-75
2022/11/15 18:13:27;;;;;;;;;;;;;;;14.72;100.00;99675.81;10426994;28;97072;-76
2022/11/15 18:18:31;;;;;;;20.05;7.22;;;;;;;14.67;100.00;99680.50;10425148;28;97975;-74
2022/11/15 18:23:37;;;;;;;25.20;9.07;;;;;;;14.58;100.00;99683.66;10420654;28;98489;-74
2022/11/15 18:28:42;;;;;;;11.70;3.40;;;;;;;14.48;100.00;99674.59;10418167;28;96835;-73
2022/11/15 18:33:46;;;;;;;9.85;3.08;;;;;;;14.43;100.00;99687.19;10422672;28;99857;-74
2022/11/15 18:38:54;;;;;;;12.35;3.30;;;;;;;14.44;100.00;99699.41;10424367;27;96916;-75
2022/11/15 18:43:59;;;;;;;12.98;3.22;;;;;;;14.30;100.00;99687.00;10423728;28;96784;-76
2022/11/15 18:49:03;;;;;;;48.65;23.52;;;;;;;14.28;100.00;99684.47;10422187;28;99305;-75
2022/11/15 18:54:09;;;;;;;20.52;8.38;;;;;;;14.26;100.00;99683.69;10413865;28;96820;-76
2022/11/15 18:59:13;;;;;;;22.50;8.63;;;;;;;14.25;100.00;99683.78;10423949;28;96961;-74
2022/11/15 19:04:18;;;;;;;27.55;12.90;;;;;;;14.25;100.00;99683.78;10421463;28;96863;-74
2022/11/15 19:09:30;;;;;;;16.13;5.85;;;;;;;14.26;100.00;99690.72;10423191;28;96912;-74
2022/11/15 19:14:33;;;;;;;14.02;5.50;;;;;;;14.29;100.00;99696.66;10424816;28;97189;-74
2022/11/15 19:19:37;;;;;;;18.65;8.13;;;;;;;14.28;100.00;99689.72;10423861;28;97194;-75
2022/11/15 19:24:41;;;;;;;19.45;7.22;;;;;;;14.31;100.00;99692.19;10424740;28;96765;-75
2022/11/15 19:29:44;;;;;;;;;;;;;;;14.29;100.00;99701.91;10424069;27;96855;-75
2022/11/15 19:34:48;;;;;;;13.32;4.38;;;;;;;14.27;100.00;99698.53;10424271;28;96772;-75
2022/11/15 19:39:52;;;;;;;16.77;4.55;;;;;;;14.21;100.00;99704.16;10393053;28;96821;-75
2022/11/15 19:44:56;;;;;;;10.52;3.83;;;;;;;14.24;100.00;99713.63;10423948;28;96840;-76
2022/11/15 19:49:59;;;;;;;11.05;4.38;;;;;;;14.23;100.00;99702.28;10416621;27;97225;-75
2022/11/15 19:55:05;;;;;;;16.55;3.88;;;;;;;14.27;100.00;99693.28;10420570;28;97827;-75
2022/11/15 20:00:10;;;;;;;10.73;3.72;;;;;;;14.24;100.00;99701.31;10412996;28;97095;-75
2022/11/15 20:05:13;;;;;;;15.65;4.20;;;;;;;14.23;100.00;99707.53;10406974;28;98961;-75
2022/11/15 20:10:21;;;;;;;15.60;4.05;;;;;;;14.19;100.00;99709.50;10411823;28;97833;-74
2022/11/15 20:15:25;;;;;;;14.82;5.03;;;;;;;14.20;100.00;99710.31;10412521;28;98864;-75
2022/11/15 20:20:29;;;;;;;13.02;4.28;;;;;;;14.17;100.00;99713.97;10419519;28;97378;-75
2022/11/15 20:25:40;;;;;;;14.23;3.47;;;;;;;14.21;100.00;99709.41;10408695;28;96915;-75
2022/11/15 20:30:44;;;;;;;12.45;3.63;;;;;;;14.25;100.00;99704.81;10414278;28;96714;-73
2022/11/15 20:35:47;;;;;;;17.97;5.10;;;;;;;14.28;100.00;99716.00;10419978;28;96853;-75
2022/11/15 20:40:52;;;;;;;13.38;3.85;;;;;;;14.30;100.00;99737.81;10422045;28;98264;-75
2022/11/15 20:46:02;;;;;;;11.55;4.25;;;;;;;14.23;100.00;99736.47;10422814;28;96811;-75
2022/11/15 20:51:07;;;;;;;12.65;4.22;;;;;;;14.15;100.00;99736.88;10422523;28;96550;-75
2022/11/15 20:56:13;;;;;;;15.50;4.05;;;;;;;14.11;100.00;99737.97;10422670;28;96734;-75
2022/11/15 21:01:21;;;;;;;13.40;3.92;;;;;;;13.98;100.00;99744.84;10422416;28;96740;-75
2022/11/15 21:06:26;;;;;;;12.95;3.85;;;;;;;13.95;100.00;99745.84;10428099;28;96627;-75
2022/11/15 21:16:51;;;;;;;13.27;3.60;;;;;;;13.99;100.00;99757.91;10427749;28;96667;-75
2022/11/15 21:21:55;;;;;;;8.57;3.70;;;;;;;14.00;100.00;99749.09;10428218;28;96593;-75
2022/11/15 21:26:59;;;;;;;11.85;4.10;;;;;;;13.98;100.00;99740.44;10424833;28;96785;-75
2022/11/15 21:32:03;;;;;;;13.60;4.15;;;;;;;13.91;100.00;99744.31;10427356;28;96984;-75
2022/11/15 21:37:09;;;;;;;15.13;3.97;;;;;;;13.89;100.00;99740.91;10425788;28;96750;-75
2022/11/15 21:42:14;;;;;;;11.75;3.40;;;;;;;13.93;100.00;99739.84;10425732;28;97124;-75
2022/11/15 21:47:17;;;;;;;11.93;3.92;;;;;;;13.93;100.00;99742.47;10426536;28;96645;-75
2022/11/15 21:52:21;;;;;;;10.43;3.60;;;;;;;13.90;100.00;99733.91;10426942;28;98014;-75
2022/11/15 21:57:29;;;;;;;12.68;3.83;;;;;;;13.79;100.00;99740.59;10425809;28;96728;-75
2022/11/15 22:02:32;;;;;;;15.48;4.10;;;;;;;13.75;100.00;99738.19;10426449;28;96726;-74
2022/11/15 22:07:35;;;;;;;14.85;4.22;;;;;;;13.75;100.00;99718.00;10425626;28;97381;-75
2022/11/15 22:12:40;;;;;;;10.30;3.40;;;;;;;13.80;100.00;99726.50;10426522;28;96718;-75
2022/11/15 22:17:58;;;;;;;12.55;3.40;;;;;;;13.82;100.00;99726.41;10425332;28;96985;-75
2022/11/15 22:23:01;;;;;;;12.90;3.72;;;;;;;13.86;100.00;99741.06;10425383;28;96683;-75
2022/11/15 22:28:06;;;;;;;9.52;2.80;;;;;;;13.85;100.00;99728.03;10424262;28;96992;-75
2022/11/15 22:33:09;;;;;;;9.48;2.90;;;;;;;13.88;100.00;99723.47;10425180;28;96641;-75
2022/11/15 22:38:13;;;;;;;7.88;2.50;;;;;;;13.88;100.00;99720.84;10425318;28;96842;-75
2022/11/15 22:43:20;;;;;;;9.47;3.00;;;;;;;13.80;100.00;99709.88;10424633;28;96957;-75
2022/11/15 22:48:25;;;;;;;7.72;2.35;;;;;;;13.81;100.00;99716.81;10424685;28;96689;-75
2022/11/15 22:53:28;;;;;;;7.50;2.03;;;;;;;13.83;100.00;99722.88;10424593;28;96710;-75
2022/11/15 22:58:34;;;;;;;7.13;2.20;;;;;;;13.86;100.00;99717.41;10424703;28;96723;-75
2022/11/15 23:03:37;;;;;;;9.27;2.03;;;;;;;13.91;100.00;99722.44;10425100;28;96571;-75
2022/11/15 23:08:41;;;;;;;4.75;1.75;;;;;;;13.90;100.00;99720.75;10424063;28;97460;-75
2022/11/15 23:13:45;;;;;;;7.72;2.17;;;;;;;13.90;100.00;99726.88;10423716;28;96626;-75
2022/11/15 23:18:50;;;;;;;7.45;1.85;;;;;;;13.86;100.00;99742.88;10422143;28;96796;-75
2022/11/15 23:23:53;;;;;;;8.60;2.47;;;;;;;13.82;100.00;99743.03;10423353;28;96671;-75
2022/11/15 23:28:58;;;;;;;11.40;2.53;;;;;;;13.83;100.00;99730.75;10387528;27;96651;-75
2022/11/15 23:34:01;;;;;;;6.10;1.80;;;;;;;13.83;100.00;99736.00;10381645;28;96713;-75
2022/11/15 23:39:04;;;;;;;9.57;2.13;;;;;;;13.88;100.00;99739.25;10398470;28;96565;-75
2022/11/15 23:44:09;;;;;;;9.73;2.20;;;;;;;13.88;100.00;99733.13;10422289;28;96605;-75
2022/11/15 23:49:12;;;;;;;9.93;2.22;;;;;;;13.88;100.00;99735.75;10422855;28;96701;-75
2022/11/15 23:54:15;;;;;;;5.75;1.52;;;;;;;13.91;100.00;99739.06;10423117;28;96654;-75
2022/11/15 23:59:20;;;;;;;12.90;2.25;;;;;;;13.93;100.00;99731.09;10422176;28;96782;-75
